sensor_id;sensor_type;location;lat;lon;timestamp;pressure;altitude;pressure_sealevel;temperature;humidity
62849;BME280;48941;49.516;8.286;2023-08-24T00:00:56;100535.31;;;22.00;67.37
62849;BME280;48941;49.516;8.286;2023-08-24T00:03:23;100539.25;;;21.98;67.69
62849;BME280;48941;49.516;8.286;2023-08-24T00:05:51;100525.56;;;21.84;69.37
62849;BME280;48941;49.516;8.286;2023-08-24T00:08:19;100521.88;;;21.71;70.05
62849;BME280;48941;49.516;8.286;2023-08-24T00:10:48;100518.91;;;21.65;68.97
62849;BME280;48941;49.516;8.286;2023-08-24T00:13:16;100519.50;;;21.61;68.73
62849;BME280;48941;49.516;8.286;2023-08-24T00:15:45;100525.38;;;21.64;68.34
62849;BME280;48941;49.516;8.286;2023-08-24T00:18:13;100531.44;;;21.66;67.75
62849;BME280;48941;49.516;8.286;2023-08-24T00:20:40;100532.34;;;21.74;67.58
62849;BME280;48941;49.516;8.286;2023-08-24T00:23:09;100531.19;;;21.83;67.53
62849;BME280;48941;49.516;8.286;2023-08-24T00:25:36;100538.69;;;21.81;68.15
62849;BME280;48941;49.516;8.286;2023-08-24T00:28:06;100550.38;;;21.81;67.55
62849;BME280;48941;49.516;8.286;2023-08-24T00:30:33;100544.13;;;21.81;67.06
62849;BME280;48941;49.516;8.286;2023-08-24T00:33:02;100557.28;;;21.84;66.70
62849;BME280;48941;49.516;8.286;2023-08-24T00:35:30;100552.91;;;21.83;66.70
62849;BME280;48941;49.516;8.286;2023-08-24T00:37:58;100561.44;;;21.86;67.37
62849;BME280;48941;49.516;8.286;2023-08-24T00:40:26;100568.56;;;21.87;69.06
62849;BME280;48941;49.516;8.286;2023-08-24T00:42:54;100555.28;;;21.71;70.30
62849;BME280;48941;49.516;8.286;2023-08-24T00:45:23;100545.56;;;21.62;70.28
62849;BME280;48941;49.516;8.286;2023-08-24T00:47:51;100548.84;;;21.57;69.44
62849;BME280;48941;49.516;8.286;2023-08-24T00:50:19;100549.22;;;21.54;69.10
62849;BME280;48941;49.516;8.286;2023-08-24T00:52:48;100544.00;;;21.53;68.66
62849;BME280;48941;49.516;8.286;2023-08-24T00:55:17;100536.97;;;21.58;68.36
62849;BME280;48941;49.516;8.286;2023-08-24T00:57:45;100545.97;;;21.59;68.10
62849;BME280;48941;49.516;8.286;2023-08-24T01:00:13;100552.03;;;21.61;68.11
62849;BME280;48941;49.516;8.286;2023-08-24T01:02:43;100557.69;;;21.66;67.93
62849;BME280;48941;49.516;8.286;2023-08-24T01:05:11;100545.63;;;21.68;67.58
62849;BME280;48941;49.516;8.286;2023-08-24T01:07:39;100552.03;;;21.61;67.97
62849;BME280;48941;49.516;8.286;2023-08-24T01:10:09;100558.41;;;21.53;68.34
62849;BME280;48941;49.516;8.286;2023-08-24T01:12:48;100549.81;;;21.50;68.01
62849;BME280;48941;49.516;8.286;2023-08-24T01:15:22;100552.97;;;21.38;68.84
62849;BME280;48941;49.516;8.286;2023-08-24T01:17:55;100560.66;;;21.50;68.91
62849;BME280;48941;49.516;8.286;2023-08-24T01:20:25;100556.53;;;21.54;69.09
62849;BME280;48941;49.516;8.286;2023-08-24T01:22:58;100556.25;;;21.48;69.42
62849;BME280;48941;49.516;8.286;2023-08-24T01:25:37;100550.00;;;21.48;70.05
62849;BME280;48941;49.516;8.286;2023-08-24T01:28:08;100554.13;;;21.44;70.44
62849;BME280;48941;49.516;8.286;2023-08-24T01:30:36;100548.84;;;21.42;70.85
62849;BME280;48941;49.516;8.286;2023-08-24T01:33:05;100555.69;;;21.38;71.21
62849;BME280;48941;49.516;8.286;2023-08-24T01:35:38;100551.50;;;21.36;71.27
62849;BME280;48941;49.516;8.286;2023-08-24T01:38:06;100543.06;;;21.31;71.31
62849;BME280;48941;49.516;8.286;2023-08-24T01:40:48;100540.00;;;21.34;70.90
62849;BME280;48941;49.516;8.286;2023-08-24T01:43:21;100543.34;;;21.36;71.25
62849;BME280;48941;49.516;8.286;2023-08-24T01:46:09;100540.66;;;21.36;71.68
62849;BME280;48941;49.516;8.286;2023-08-24T01:48:39;100547.47;;;21.32;72.10
62849;BME280;48941;49.516;8.286;2023-08-24T01:51:07;100539.53;;;21.30;72.25
62849;BME280;48941;49.516;8.286;2023-08-24T01:53:37;100536.00;;;21.29;72.70
62849;BME280;48941;49.516;8.286;2023-08-24T01:56:08;100544.69;;;21.25;73.42
62849;BME280;48941;49.516;8.286;2023-08-24T01:58:38;100538.53;;;21.16;74.32
62849;BME280;48941;49.516;8.286;2023-08-24T02:01:05;100531.25;;;21.02;75.02
62849;BME280;48941;49.516;8.286;2023-08-24T02:03:33;100529.66;;;20.93;75.29
62849;BME280;48941;49.516;8.286;2023-08-24T02:06:01;100534.91;;;20.94;75.44
62849;BME280;48941;49.516;8.286;2023-08-24T02:08:29;100535.84;;;20.86;75.25
62849;BME280;48941;49.516;8.286;2023-08-24T02:10:57;100534.34;;;20.84;75.13
62849;BME280;48941;49.516;8.286;2023-08-24T02:13:25;100524.34;;;20.84;74.68
62849;BME280;48941;49.516;8.286;2023-08-24T02:16:02;100526.41;;;20.82;74.26
62849;BME280;48941;49.516;8.286;2023-08-24T02:18:30;100521.47;;;20.86;74.38
62849;BME280;48941;49.516;8.286;2023-08-24T02:20:58;100516.22;;;20.84;73.14
62849;BME280;48941;49.516;8.286;2023-08-24T02:23:25;100516.44;;;20.83;71.94
62849;BME280;48941;49.516;8.286;2023-08-24T02:25:53;100514.56;;;20.83;72.25
62849;BME280;48941;49.516;8.286;2023-08-24T02:28:21;100517.94;;;20.85;71.70
62849;BME280;48941;49.516;8.286;2023-08-24T02:30:49;100512.63;;;20.77;71.43
62849;BME280;48941;49.516;8.286;2023-08-24T02:33:18;100498.88;;;20.79;71.53
62849;BME280;48941;49.516;8.286;2023-08-24T02:35:47;100493.28;;;20.80;71.55
62849;BME280;48941;49.516;8.286;2023-08-24T02:38:15;100494.78;;;20.83;71.30
62849;BME280;48941;49.516;8.286;2023-08-24T02:40:42;100499.53;;;20.81;71.68
62849;BME280;48941;49.516;8.286;2023-08-24T02:43:10;100503.75;;;20.83;71.58
62849;BME280;48941;49.516;8.286;2023-08-24T02:45:38;100506.06;;;20.86;71.62
62849;BME280;48941;49.516;8.286;2023-08-24T02:48:06;100499.34;;;20.82;71.97
62849;BME280;48941;49.516;8.286;2023-08-24T02:50:35;100504.50;;;20.77;72.74
62849;BME280;48941;49.516;8.286;2023-08-24T02:53:03;100507.19;;;20.77;73.01
62849;BME280;48941;49.516;8.286;2023-08-24T02:55:31;100502.69;;;20.84;73.43
62849;BME280;48941;49.516;8.286;2023-08-24T02:58:00;100519.59;;;20.86;72.36
62849;BME280;48941;49.516;8.286;2023-08-24T03:00:28;100511.28;;;20.88;71.52
62849;BME280;48941;49.516;8.286;2023-08-24T03:02:56;100509.50;;;20.80;71.76
62849;BME280;48941;49.516;8.286;2023-08-24T03:05:24;100501.13;;;20.75;71.96
62849;BME280;48941;49.516;8.286;2023-08-24T03:07:53;100492.81;;;20.77;72.09
62849;BME280;48941;49.516;8.286;2023-08-24T03:10:20;100491.78;;;20.78;72.21
62849;BME280;48941;49.516;8.286;2023-08-24T03:12:48;100472.47;;;20.66;72.90
62849;BME280;48941;49.516;8.286;2023-08-24T03:15:16;100452.53;;;20.67;72.84
62849;BME280;48941;49.516;8.286;2023-08-24T03:17:44;100432.53;;;20.68;72.43
62849;BME280;48941;49.516;8.286;2023-08-24T03:20:12;100423.41;;;20.69;71.52
62849;BME280;48941;49.516;8.286;2023-08-24T03:22:40;100408.19;;;20.68;70.37
62849;BME280;48941;49.516;8.286;2023-08-24T03:25:09;100395.59;;;20.75;70.79
62849;BME280;48941;49.516;8.286;2023-08-24T03:27:37;100385.84;;;20.81;70.23
62849;BME280;48941;49.516;8.286;2023-08-24T03:30:06;100390.88;;;20.84;69.73
62849;BME280;48941;49.516;8.286;2023-08-24T03:32:34;100400.75;;;20.92;69.07
62849;BME280;48941;49.516;8.286;2023-08-24T03:35:03;100411.84;;;20.97;69.86
62849;BME280;48941;49.516;8.286;2023-08-24T03:37:30;100411.66;;;20.98;69.86
62849;BME280;48941;49.516;8.286;2023-08-24T03:39:58;100410.06;;;21.04;69.69
62849;BME280;48941;49.516;8.286;2023-08-24T03:42:27;100406.34;;;21.05;69.21
62849;BME280;48941;49.516;8.286;2023-08-24T03:44:55;100409.31;;;21.10;68.69
62849;BME280;48941;49.516;8.286;2023-08-24T03:47:23;100410.13;;;21.11;70.09
62849;BME280;48941;49.516;8.286;2023-08-24T03:49:50;100409.06;;;21.05;72.66
62849;BME280;48941;49.516;8.286;2023-08-24T03:52:18;100407.75;;;21.01;73.92
62849;BME280;48941;49.516;8.286;2023-08-24T03:54:46;100419.22;;;21.03;74.75
62849;BME280;48941;49.516;8.286;2023-08-24T03:57:14;100421.28;;;21.01;75.38
62849;BME280;48941;49.516;8.286;2023-08-24T03:59:43;100423.06;;;20.94;76.40
62849;BME280;48941;49.516;8.286;2023-08-24T04:02:11;100418.03;;;20.91;77.12
62849;BME280;48941;49.516;8.286;2023-08-24T04:04:38;100425.13;;;20.92;76.25
62849;BME280;48941;49.516;8.286;2023-08-24T04:07:06;100423.44;;;20.91;76.11
62849;BME280;48941;49.516;8.286;2023-08-24T04:09:34;100428.41;;;20.87;75.56
62849;BME280;48941;49.516;8.286;2023-08-24T04:12:02;100415.25;;;20.84;75.72
62849;BME280;48941;49.516;8.286;2023-08-24T04:14:29;100426.25;;;20.82;75.85
62849;BME280;48941;49.516;8.286;2023-08-24T04:16:59;100422.44;;;20.77;76.47
62849;BME280;48941;49.516;8.286;2023-08-24T04:19:26;100423.66;;;20.74;76.06
62849;BME280;48941;49.516;8.286;2023-08-24T04:21:54;100419.28;;;20.73;74.88
62849;BME280;48941;49.516;8.286;2023-08-24T04:24:22;100414.06;;;20.72;74.81
62849;BME280;48941;49.516;8.286;2023-08-24T04:26:51;100409.66;;;20.71;75.01
62849;BME280;48941;49.516;8.286;2023-08-24T04:29:19;100418.66;;;20.71;75.19
62849;BME280;48941;49.516;8.286;2023-08-24T04:31:47;100407.81;;;20.71;74.90
62849;BME280;48941;49.516;8.286;2023-08-24T04:34:16;100406.88;;;20.64;74.56
62849;BME280;48941;49.516;8.286;2023-08-24T04:36:43;100404.00;;;20.65;74.54
62849;BME280;48941;49.516;8.286;2023-08-24T04:39:11;100408.47;;;20.73;74.52
62849;BME280;48941;49.516;8.286;2023-08-24T04:41:39;100407.34;;;20.67;74.70
62849;BME280;48941;49.516;8.286;2023-08-24T04:44:07;100409.22;;;20.67;74.81
62849;BME280;48941;49.516;8.286;2023-08-24T04:46:34;100403.81;;;20.67;75.46
62849;BME280;48941;49.516;8.286;2023-08-24T04:49:03;100406.50;;;20.67;75.34
62849;BME280;48941;49.516;8.286;2023-08-24T04:51:32;100405.88;;;20.65;75.20
62849;BME280;48941;49.516;8.286;2023-08-24T04:54:00;100405.59;;;20.60;75.27
62849;BME280;48941;49.516;8.286;2023-08-24T04:56:28;100406.88;;;20.64;74.80
62849;BME280;48941;49.516;8.286;2023-08-24T04:58:57;100402.31;;;20.64;74.79
62849;BME280;48941;49.516;8.286;2023-08-24T05:01:27;100409.41;;;20.65;74.71
62849;BME280;48941;49.516;8.286;2023-08-24T05:03:57;100412.19;;;20.72;74.75
62849;BME280;48941;49.516;8.286;2023-08-24T05:06:24;100424.88;;;20.72;74.74
62849;BME280;48941;49.516;8.286;2023-08-24T05:08:54;100428.25;;;20.74;74.84
62849;BME280;48941;49.516;8.286;2023-08-24T05:11:23;100440.38;;;20.78;74.53
62849;BME280;48941;49.516;8.286;2023-08-24T05:13:52;100454.25;;;20.75;75.00
62849;BME280;48941;49.516;8.286;2023-08-24T05:16:20;100471.16;;;20.77;74.66
62849;BME280;48941;49.516;8.286;2023-08-24T05:18:48;100493.75;;;20.84;74.10
62849;BME280;48941;49.516;8.286;2023-08-24T05:21:16;100509.81;;;20.85;73.76
62849;BME280;48941;49.516;8.286;2023-08-24T05:23:43;100537.72;;;20.86;73.40
62849;BME280;48941;49.516;8.286;2023-08-24T05:26:12;100545.84;;;20.86;73.24
62849;BME280;48941;49.516;8.286;2023-08-24T05:28:40;100556.31;;;20.89;73.36
62849;BME280;48941;49.516;8.286;2023-08-24T05:31:08;100572.16;;;20.92;73.28
62849;BME280;48941;49.516;8.286;2023-08-24T05:33:36;100573.63;;;20.95;73.39
62849;BME280;48941;49.516;8.286;2023-08-24T05:36:04;100577.28;;;21.02;73.33
62849;BME280;48941;49.516;8.286;2023-08-24T05:38:32;100571.78;;;21.10;72.74
62849;BME280;48941;49.516;8.286;2023-08-24T05:41:00;100560.19;;;21.16;72.45
62849;BME280;48941;49.516;8.286;2023-08-24T05:43:29;100561.13;;;21.23;71.60
62849;BME280;48941;49.516;8.286;2023-08-24T05:45:57;100546.66;;;21.31;71.50
62849;BME280;48941;49.516;8.286;2023-08-24T05:48:24;100534.41;;;21.35;71.35
62849;BME280;48941;49.516;8.286;2023-08-24T05:50:52;100540.72;;;21.42;71.76
62849;BME280;48941;49.516;8.286;2023-08-24T05:53:20;100535.03;;;21.52;71.84
62849;BME280;48941;49.516;8.286;2023-08-24T05:55:47;100530.25;;;21.54;71.58
62849;BME280;48941;49.516;8.286;2023-08-24T05:58:15;100531.56;;;21.58;71.23
62849;BME280;48941;49.516;8.286;2023-08-24T06:00:44;100522.00;;;21.62;71.10
62849;BME280;48941;49.516;8.286;2023-08-24T06:03:13;100514.78;;;21.70;70.97
62849;BME280;48941;49.516;8.286;2023-08-24T06:05:41;100524.88;;;21.76;70.95
62849;BME280;48941;49.516;8.286;2023-08-24T06:08:08;100533.81;;;21.76;70.90
62849;BME280;48941;49.516;8.286;2023-08-24T06:10:36;100532.81;;;21.77;70.52
62849;BME280;48941;49.516;8.286;2023-08-24T06:13:04;100520.53;;;21.81;70.67
62849;BME280;48941;49.516;8.286;2023-08-24T06:15:32;100514.94;;;21.83;71.14
62849;BME280;48941;49.516;8.286;2023-08-24T06:18:01;100506.41;;;21.86;70.87
62849;BME280;48941;49.516;8.286;2023-08-24T06:20:29;100514.53;;;21.86;70.95
62849;BME280;48941;49.516;8.286;2023-08-24T06:22:56;100504.53;;;21.86;71.11
62849;BME280;48941;49.516;8.286;2023-08-24T06:25:24;100499.09;;;21.86;71.15
62849;BME280;48941;49.516;8.286;2023-08-24T06:27:52;100481.16;;;21.85;71.12
62849;BME280;48941;49.516;8.286;2023-08-24T06:30:19;100461.13;;;21.86;71.49
62849;BME280;48941;49.516;8.286;2023-08-24T06:32:47;100470.50;;;21.84;71.62
62849;BME280;48941;49.516;8.286;2023-08-24T06:35:17;100466.91;;;21.77;71.98
62849;BME280;48941;49.516;8.286;2023-08-24T06:37:44;100473.53;;;21.74;71.56
62849;BME280;48941;49.516;8.286;2023-08-24T06:40:12;100484.78;;;21.71;71.83
62849;BME280;48941;49.516;8.286;2023-08-24T06:42:41;100494.13;;;21.68;72.13
62849;BME280;48941;49.516;8.286;2023-08-24T06:45:09;100486.22;;;21.67;72.14
62849;BME280;48941;49.516;8.286;2023-08-24T06:47:38;100484.34;;;21.67;72.83
62849;BME280;48941;49.516;8.286;2023-08-24T06:50:06;100486.63;;;21.71;72.09
62849;BME280;48941;49.516;8.286;2023-08-24T06:52:35;100496.06;;;21.75;72.11
62849;BME280;48941;49.516;8.286;2023-08-24T06:55:04;100495.09;;;21.82;71.87
62849;BME280;48941;49.516;8.286;2023-08-24T06:57:32;100473.69;;;21.87;71.94
62849;BME280;48941;49.516;8.286;2023-08-24T07:00:00;100470.19;;;21.94;71.42
62849;BME280;48941;49.516;8.286;2023-08-24T07:02:33;100480.06;;;22.01;71.32
62849;BME280;48941;49.516;8.286;2023-08-24T07:05:00;100479.47;;;22.06;71.71
62849;BME280;48941;49.516;8.286;2023-08-24T07:07:31;100472.41;;;22.12;71.42
62849;BME280;48941;49.516;8.286;2023-08-24T07:10:00;100475.28;;;22.25;71.38
62849;BME280;48941;49.516;8.286;2023-08-24T07:12:28;100475.75;;;22.35;70.96
62849;BME280;48941;49.516;8.286;2023-08-24T07:14:55;100478.75;;;22.47;70.45
62849;BME280;48941;49.516;8.286;2023-08-24T07:17:23;100474.63;;;22.58;69.87
62849;BME280;48941;49.516;8.286;2023-08-24T07:19:51;100472.66;;;22.73;69.48
62849;BME280;48941;49.516;8.286;2023-08-24T07:22:19;100473.34;;;22.89;68.64
62849;BME280;48941;49.516;8.286;2023-08-24T07:24:47;100476.59;;;23.12;68.50
62849;BME280;48941;49.516;8.286;2023-08-24T07:27:20;100479.81;;;23.29;68.00
62849;BME280;48941;49.516;8.286;2023-08-24T07:29:48;100487.34;;;23.40;66.72
62849;BME280;48941;49.516;8.286;2023-08-24T07:32:16;100488.00;;;23.49;66.06
62849;BME280;48941;49.516;8.286;2023-08-24T07:34:44;100494.28;;;23.56;65.32
62849;BME280;48941;49.516;8.286;2023-08-24T07:37:11;100495.53;;;23.60;65.48
62849;BME280;48941;49.516;8.286;2023-08-24T07:39:39;100491.78;;;23.61;65.68
62849;BME280;48941;49.516;8.286;2023-08-24T07:42:07;100503.31;;;23.63;66.11
62849;BME280;48941;49.516;8.286;2023-08-24T07:44:36;100501.41;;;23.64;65.83
62849;BME280;48941;49.516;8.286;2023-08-24T07:47:04;100512.09;;;23.65;65.96
62849;BME280;48941;49.516;8.286;2023-08-24T07:49:31;100513.34;;;23.63;65.62
62849;BME280;48941;49.516;8.286;2023-08-24T07:51:59;100519.63;;;23.63;65.06
62849;BME280;48941;49.516;8.286;2023-08-24T07:54:27;100506.84;;;23.64;65.65
62849;BME280;48941;49.516;8.286;2023-08-24T07:56:54;100492.66;;;23.69;65.53
62849;BME280;48941;49.516;8.286;2023-08-24T07:59:22;100483.44;;;23.70;64.97
62849;BME280;48941;49.516;8.286;2023-08-24T08:01:51;100478.88;;;23.83;64.49
62849;BME280;48941;49.516;8.286;2023-08-24T08:04:19;100461.31;;;23.99;64.32
62849;BME280;48941;49.516;8.286;2023-08-24T08:06:47;100452.94;;;24.21;63.23
62849;BME280;48941;49.516;8.286;2023-08-24T08:09:15;100441.41;;;24.39;61.38
62849;BME280;48941;49.516;8.286;2023-08-24T08:11:43;100420.63;;;24.58;61.02
62849;BME280;48941;49.516;8.286;2023-08-24T08:14:12;100414.28;;;24.77;60.62
62849;BME280;48941;49.516;8.286;2023-08-24T08:16:40;100401.84;;;24.95;58.94
62849;BME280;48941;49.516;8.286;2023-08-24T08:19:09;100402.78;;;25.14;59.03
62849;BME280;48941;49.516;8.286;2023-08-24T08:21:36;100398.13;;;25.28;57.66
62849;BME280;48941;49.516;8.286;2023-08-24T08:24:04;100387.53;;;25.44;58.01
62849;BME280;48941;49.516;8.286;2023-08-24T08:26:32;100387.13;;;25.41;57.05
62849;BME280;48941;49.516;8.286;2023-08-24T08:29:00;100379.09;;;25.46;56.83
62849;BME280;48941;49.516;8.286;2023-08-24T08:31:28;100390.41;;;25.50;56.55
62849;BME280;48941;49.516;8.286;2023-08-24T08:33:55;100385.00;;;25.43;57.31
62849;BME280;48941;49.516;8.286;2023-08-24T08:36:24;100384.41;;;25.41;57.51
62849;BME280;48941;49.516;8.286;2023-08-24T08:38:52;100388.91;;;25.54;57.04
62849;BME280;48941;49.516;8.286;2023-08-24T08:41:22;100385.88;;;25.69;55.85
62849;BME280;48941;49.516;8.286;2023-08-24T08:43:50;100390.06;;;25.96;56.18
62849;BME280;48941;49.516;8.286;2023-08-24T08:46:18;100397.75;;;26.25;54.73
62849;BME280;48941;49.516;8.286;2023-08-24T08:48:46;100383.34;;;26.54;53.41
62849;BME280;48941;49.516;8.286;2023-08-24T08:51:17;100381.59;;;26.78;51.46
62849;BME280;48941;49.516;8.286;2023-08-24T08:53:46;100381.25;;;27.05;50.15
62849;BME280;48941;49.516;8.286;2023-08-24T08:56:14;100381.84;;;27.37;49.40
62849;BME280;48941;49.516;8.286;2023-08-24T08:58:43;100362.63;;;27.68;48.65
62849;BME280;48941;49.516;8.286;2023-08-24T09:01:12;100348.16;;;27.91;48.34
62849;BME280;48941;49.516;8.286;2023-08-24T09:03:41;100338.00;;;28.15;47.24
62849;BME280;48941;49.516;8.286;2023-08-24T09:06:10;100339.75;;;28.33;46.04
62849;BME280;48941;49.516;8.286;2023-08-24T09:08:38;100333.53;;;28.37;46.31
62849;BME280;48941;49.516;8.286;2023-08-24T09:11:08;100336.41;;;28.54;46.15
62849;BME280;48941;49.516;8.286;2023-08-24T09:13:36;100332.44;;;28.62;45.83
62849;BME280;48941;49.516;8.286;2023-08-24T09:16:06;100329.66;;;28.74;45.20
62849;BME280;48941;49.516;8.286;2023-08-24T09:18:35;100318.50;;;28.92;45.38
62849;BME280;48941;49.516;8.286;2023-08-24T09:21:11;100304.41;;;29.17;45.15
62849;BME280;48941;49.516;8.286;2023-08-24T09:23:43;100299.78;;;29.35;44.05
62849;BME280;48941;49.516;8.286;2023-08-24T09:26:12;100291.56;;;29.52;44.08
62849;BME280;48941;49.516;8.286;2023-08-24T09:28:42;100295.44;;;29.73;43.85
62849;BME280;48941;49.516;8.286;2023-08-24T09:31:11;100295.09;;;29.86;42.92
62849;BME280;48941;49.516;8.286;2023-08-24T09:33:42;100277.81;;;30.08;40.93
62849;BME280;48941;49.516;8.286;2023-08-24T09:36:13;100275.22;;;30.23;42.43
62849;BME280;48941;49.516;8.286;2023-08-24T09:38:46;100274.88;;;30.36;39.71
62849;BME280;48941;49.516;8.286;2023-08-24T09:41:16;100260.44;;;30.46;40.15
62849;BME280;48941;49.516;8.286;2023-08-24T09:43:43;100261.91;;;30.54;40.41
62849;BME280;48941;49.516;8.286;2023-08-24T09:46:11;100249.28;;;30.58;39.81
62849;BME280;48941;49.516;8.286;2023-08-24T09:48:39;100246.59;;;30.63;39.63
62849;BME280;48941;49.516;8.286;2023-08-24T09:51:07;100242.34;;;30.77;39.21
62849;BME280;48941;49.516;8.286;2023-08-24T09:53:37;100240.19;;;30.85;39.70
62849;BME280;48941;49.516;8.286;2023-08-24T09:56:08;100234.81;;;30.95;39.37
62849;BME280;48941;49.516;8.286;2023-08-24T09:58:38;100244.28;;;31.09;39.48
62849;BME280;48941;49.516;8.286;2023-08-24T10:01:06;100243.81;;;31.17;38.31
62849;BME280;48941;49.516;8.286;2023-08-24T10:03:38;100242.75;;;31.24;37.62
62849;BME280;48941;49.516;8.286;2023-08-24T10:06:10;100240.91;;;31.34;38.24
62849;BME280;48941;49.516;8.286;2023-08-24T10:08:44;100242.94;;;31.49;38.36
62849;BME280;48941;49.516;8.286;2023-08-24T10:11:17;100235.91;;;31.69;37.59
62849;BME280;48941;49.516;8.286;2023-08-24T10:13:53;100232.41;;;31.89;37.23
62849;BME280;48941;49.516;8.286;2023-08-24T10:16:23;100235.00;;;32.06;37.73
62849;BME280;48941;49.516;8.286;2023-08-24T10:18:52;100226.78;;;32.16;36.92
62849;BME280;48941;49.516;8.286;2023-08-24T10:21:20;100217.47;;;32.27;36.78
62849;BME280;48941;49.516;8.286;2023-08-24T10:23:48;100210.28;;;32.37;36.57
62849;BME280;48941;49.516;8.286;2023-08-24T10:26:16;100205.91;;;32.51;36.72
62849;BME280;48941;49.516;8.286;2023-08-24T10:28:46;100221.97;;;32.69;36.13
62849;BME280;48941;49.516;8.286;2023-08-24T10:31:15;100220.31;;;32.84;35.07
62849;BME280;48941;49.516;8.286;2023-08-24T10:33:45;100224.72;;;32.90;34.51
62849;BME280;48941;49.516;8.286;2023-08-24T10:36:13;100219.22;;;33.00;34.98
62849;BME280;48941;49.516;8.286;2023-08-24T10:38:41;100203.78;;;33.09;34.20
62849;BME280;48941;49.516;8.286;2023-08-24T10:41:10;100206.81;;;33.23;33.96
62849;BME280;48941;49.516;8.286;2023-08-24T10:43:48;100193.81;;;33.39;33.79
62849;BME280;48941;49.516;8.286;2023-08-24T10:46:18;100183.81;;;33.53;34.00
62849;BME280;48941;49.516;8.286;2023-08-24T10:48:58;100190.69;;;33.71;32.89
62849;BME280;48941;49.516;8.286;2023-08-24T10:51:27;100190.59;;;33.87;33.04
62849;BME280;48941;49.516;8.286;2023-08-24T10:53:58;100183.13;;;33.98;32.76
62849;BME280;48941;49.516;8.286;2023-08-24T10:56:31;100185.25;;;34.11;32.07
62849;BME280;48941;49.516;8.286;2023-08-24T10:59:13;100182.16;;;34.23;31.42
62849;BME280;48941;49.516;8.286;2023-08-24T11:01:43;100168.75;;;34.45;31.57
62849;BME280;48941;49.516;8.286;2023-08-24T11:04:21;100173.97;;;34.47;31.14
62849;BME280;48941;49.516;8.286;2023-08-24T11:06:54;100170.94;;;34.48;30.09
62849;BME280;48941;49.516;8.286;2023-08-24T11:09:23;100179.59;;;34.37;30.49
62849;BME280;48941;49.516;8.286;2023-08-24T11:11:58;100183.00;;;34.23;30.39
62849;BME280;48941;49.516;8.286;2023-08-24T11:14:27;100175.63;;;34.03;30.72
62849;BME280;48941;49.516;8.286;2023-08-24T11:17:00;100164.00;;;34.06;30.63
62849;BME280;48941;49.516;8.286;2023-08-24T11:19:29;100154.06;;;34.05;31.22
62849;BME280;48941;49.516;8.286;2023-08-24T11:21:58;100143.53;;;34.18;31.22
62849;BME280;48941;49.516;8.286;2023-08-24T11:24:26;100141.28;;;34.20;30.35
62849;BME280;48941;49.516;8.286;2023-08-24T11:26:55;100134.41;;;34.12;29.66
62849;BME280;48941;49.516;8.286;2023-08-24T11:29:24;100133.31;;;34.08;29.63
62849;BME280;48941;49.516;8.286;2023-08-24T11:31:52;100126.47;;;34.00;30.58
62849;BME280;48941;49.516;8.286;2023-08-24T11:34:22;100124.84;;;33.94;30.85
62849;BME280;48941;49.516;8.286;2023-08-24T11:36:50;100126.03;;;33.78;30.79
62849;BME280;48941;49.516;8.286;2023-08-24T11:39:19;100124.97;;;33.68;30.87
62849;BME280;48941;49.516;8.286;2023-08-24T11:41:57;100118.94;;;33.56;31.81
62849;BME280;48941;49.516;8.286;2023-08-24T11:44:25;100115.38;;;33.50;31.25
62849;BME280;48941;49.516;8.286;2023-08-24T11:46:58;100107.34;;;33.49;31.74
62849;BME280;48941;49.516;8.286;2023-08-24T11:49:28;100105.72;;;33.43;32.14
62849;BME280;48941;49.516;8.286;2023-08-24T11:51:56;100104.38;;;33.40;31.96
62849;BME280;48941;49.516;8.286;2023-08-24T11:54:24;100094.47;;;33.29;31.94
62849;BME280;48941;49.516;8.286;2023-08-24T11:56:52;100107.75;;;33.22;31.27
62849;BME280;48941;49.516;8.286;2023-08-24T11:59:21;100109.13;;;33.19;32.25
62849;BME280;48941;49.516;8.286;2023-08-24T12:01:49;100103.91;;;33.18;32.39
62849;BME280;48941;49.516;8.286;2023-08-24T12:04:17;100106.34;;;33.19;32.33
62849;BME280;48941;49.516;8.286;2023-08-24T12:06:46;100104.44;;;33.20;32.63
62849;BME280;48941;49.516;8.286;2023-08-24T12:09:14;100103.34;;;33.16;32.18
62849;BME280;48941;49.516;8.286;2023-08-24T12:11:42;100098.09;;;33.14;32.83
62849;BME280;48941;49.516;8.286;2023-08-24T12:14:17;100082.94;;;33.11;32.97
62849;BME280;48941;49.516;8.286;2023-08-24T12:16:44;100071.63;;;33.13;33.44
62849;BME280;48941;49.516;8.286;2023-08-24T12:19:12;100065.28;;;33.12;33.59
62849;BME280;48941;49.516;8.286;2023-08-24T12:21:43;100063.88;;;33.15;33.75
62849;BME280;48941;49.516;8.286;2023-08-24T12:24:13;100047.06;;;33.17;33.51
62849;BME280;48941;49.516;8.286;2023-08-24T12:26:41;100040.72;;;33.16;34.09
62849;BME280;48941;49.516;8.286;2023-08-24T12:29:09;100030.78;;;33.15;34.68
62849;BME280;48941;49.516;8.286;2023-08-24T12:31:42;100031.31;;;33.17;34.12
62849;BME280;48941;49.516;8.286;2023-08-24T12:34:10;100031.84;;;33.19;35.02
62849;BME280;48941;49.516;8.286;2023-08-24T12:36:42;100028.28;;;33.24;34.75
62849;BME280;48941;49.516;8.286;2023-08-24T12:39:12;100028.00;;;33.20;35.56
62849;BME280;48941;49.516;8.286;2023-08-24T12:41:41;100035.19;;;33.21;36.12
62849;BME280;48941;49.516;8.286;2023-08-24T12:44:09;100037.13;;;33.16;35.04
62849;BME280;48941;49.516;8.286;2023-08-24T12:46:41;100034.63;;;33.19;35.06
62849;BME280;48941;49.516;8.286;2023-08-24T12:49:09;100028.00;;;33.15;34.85
62849;BME280;48941;49.516;8.286;2023-08-24T12:51:38;100034.41;;;33.05;35.50
62849;BME280;48941;49.516;8.286;2023-08-24T12:54:08;100030.50;;;33.01;35.69
62849;BME280;48941;49.516;8.286;2023-08-24T12:56:39;100032.47;;;33.01;35.72
62849;BME280;48941;49.516;8.286;2023-08-24T12:59:08;100036.59;;;32.98;36.14